createdAt,value
2023-02-11T00:01:28.463Z,64.10
2023-02-11T00:03:55.938Z,65.43
2023-02-11T00:06:23.170Z,66.32
2023-02-11T00:08:50.387Z,59.25
2023-02-11T00:11:19.411Z,65.32
2023-02-11T00:13:46.935Z,60.55
2023-02-11T00:16:17.858Z,61.28
2023-02-11T00:18:45.102Z,63.65
2023-02-11T00:21:17.823Z,62.47
2023-02-11T00:23:45.476Z,62.10
2023-02-11T00:26:20.319Z,62.03
2023-02-11T00:28:48.231Z,67.55
2023-02-11T00:31:15.811Z,65.88
2023-02-11T00:33:43.094Z,67.15
2023-02-11T00:36:22.456Z,59.60
2023-02-11T00:38:50.053Z,64.78
2023-02-11T00:41:17.542Z,66.97
2023-02-11T00:43:44.963Z,62.70
2023-02-11T00:46:12.520Z,63.60
2023-02-11T00:48:39.679Z,61.35
2023-02-11T00:51:07.085Z,59.78
2023-02-11T00:53:34.317Z,59.55
2023-02-11T00:56:01.677Z,58.28
2023-02-11T00:58:28.914Z,54.70
2023-02-11T01:00:56.315Z,58.40
2023-02-11T01:03:24.870Z,52.05
2023-02-11T01:05:52.232Z,56.00
2023-02-11T01:08:19.831Z,52.63
2023-02-11T01:10:57.981Z,50.88
2023-02-11T01:13:25.391Z,53.28
2023-02-11T01:15:55.285Z,52.97
2023-02-11T01:18:22.462Z,53.58
2023-02-11T01:20:50.791Z,52.47
2023-02-11T01:23:17.962Z,49.55
2023-02-11T01:25:45.501Z,48.15
2023-02-11T01:28:20.786Z,57.05
2023-02-11T01:30:47.976Z,53.47
2023-02-11T01:33:15.323Z,54.28
2023-02-11T01:35:42.566Z,57.58
2023-02-11T01:38:18.520Z,52.55
2023-02-11T01:41:00.343Z,54.75
2023-02-11T01:43:29.810Z,41.53
2023-02-11T01:46:20.662Z,52.28
2023-02-11T01:48:55.445Z,43.25
2023-02-11T01:51:37.828Z,53.22
2023-02-11T01:54:24.497Z,54.38
2023-02-11T01:57:11.553Z,54.95
2023-02-11T02:00:17.388Z,51.50
2023-02-11T02:03:02.485Z,43.30
2023-02-11T02:05:43.501Z,51.33
2023-02-11T02:08:25.162Z,46.55
2023-02-11T02:10:56.509Z,57.47
2023-02-11T02:13:24.378Z,47.10
2023-02-11T02:16:09.495Z,56.60
2023-02-11T02:19:04.750Z,36.00
2023-02-11T02:22:31.715Z,55.33
2023-02-11T02:25:30.847Z,52.35
2023-02-11T02:28:19.522Z,50.72
2023-02-11T02:31:08.310Z,54.25
2023-02-11T02:33:55.535Z,48.70
2023-02-11T02:36:43.498Z,44.95
2023-02-11T02:39:22.567Z,48.33
2023-02-11T02:41:49.820Z,46.60
2023-02-11T02:44:17.083Z,48.10
2023-02-11T02:46:44.466Z,44.45
2023-02-11T02:49:13.612Z,44.30
2023-02-11T02:52:19.343Z,39.42
2023-02-11T02:55:37.469Z,45.17
2023-02-11T02:58:23.005Z,51.72
2023-02-11T03:01:13.281Z,45.10
2023-02-11T03:04:07.922Z,38.08
2023-02-11T03:06:58.647Z,52.53
2023-02-11T03:09:40.226Z,50.22
2023-02-11T03:12:07.765Z,42.42
2023-02-11T03:14:35.327Z,52.33
2023-02-11T03:17:04.491Z,49.97
2023-02-11T03:19:43.441Z,43.95
2023-02-11T03:22:33.681Z,48.45
2023-02-11T03:25:01.480Z,50.25
2023-02-11T03:27:47.010Z,46.13
2023-02-11T03:30:19.156Z,45.92
2023-02-11T03:33:08.676Z,42.40
2023-02-11T03:35:44.038Z,45.13
2023-02-11T03:38:33.239Z,38.67
2023-02-11T03:41:00.688Z,45.13
2023-02-11T03:43:38.465Z,49.20
2023-02-11T03:46:05.685Z,43.70
2023-02-11T03:48:39.295Z,44.90
2023-02-11T03:51:07.636Z,34.33
2023-02-11T03:53:34.890Z,49.20
2023-02-11T03:56:04.929Z,52.58
2023-02-11T03:58:32.118Z,58.58
2023-02-11T04:00:59.321Z,67.10
2023-02-11T04:03:26.603Z,90.10
2023-02-11T04:05:54.271Z,96.47
2023-02-11T04:08:21.634Z,95.60
2023-02-11T04:10:48.741Z,105.38
2023-02-11T04:13:15.894Z,104.25
2023-02-11T04:15:43.054Z,109.93
2023-02-11T04:18:10.233Z,105.13
2023-02-11T04:20:37.373Z,104.07
2023-02-11T04:23:05.076Z,103.60
2023-02-11T04:25:32.226Z,98.30
2023-02-11T04:27:59.374Z,97.53
2023-02-11T04:30:26.550Z,98.95
2023-02-11T04:32:54.462Z,91.63
2023-02-11T04:35:21.699Z,86.60
2023-02-11T04:37:48.866Z,84.43
2023-02-11T04:40:16.134Z,75.50
2023-02-11T04:42:43.544Z,65.53
2023-02-11T04:45:10.701Z,62.30
2023-02-11T04:47:38.050Z,57.08
2023-02-11T04:50:05.545Z,54.58
2023-02-11T04:52:32.702Z,47.15
2023-02-11T04:54:59.824Z,57.50
2023-02-11T04:57:27.041Z,53.75
2023-02-11T04:59:54.201Z,51.47
2023-02-11T05:02:21.424Z,50.05
2023-02-11T05:04:48.597Z,52.40
2023-02-11T05:07:15.758Z,53.80
2023-02-11T05:09:42.903Z,53.95
2023-02-11T05:12:10.054Z,58.33
2023-02-11T05:14:37.217Z,62.17
2023-02-11T05:17:04.341Z,59.47
2023-02-11T05:19:32.080Z,68.72
2023-02-11T05:22:03.011Z,68.05
2023-02-11T05:24:32.385Z,71.60
2023-02-11T05:27:00.247Z,78.97
2023-02-11T05:29:30.345Z,78.07
2023-02-11T05:31:59.556Z,81.25
2023-02-11T05:34:26.673Z,90.80
2023-02-11T05:36:53.808Z,92.22
2023-02-11T05:39:21.004Z,92.30
2023-02-11T05:41:48.131Z,85.60
2023-02-11T05:44:15.313Z,82.78
2023-02-11T05:46:42.458Z,83.15
2023-02-11T05:49:09.630Z,86.57
2023-02-11T05:51:36.809Z,82.22
2023-02-11T05:54:04.006Z,71.45
2023-02-11T05:56:31.141Z,74.70
2023-02-11T05:58:59.955Z,77.50
2023-02-11T06:01:27.232Z,72.93
2023-02-11T06:03:54.979Z,72.22
2023-02-11T06:06:22.233Z,68.15
2023-02-11T06:08:49.357Z,57.78
2023-02-11T06:11:16.972Z,57.63
2023-02-11T06:13:44.227Z,54.67
2023-02-11T06:16:11.428Z,47.55
2023-02-11T06:18:38.747Z,46.30
2023-02-11T06:21:10.053Z,47.58
2023-02-11T06:23:37.610Z,48.65
2023-02-11T06:26:06.242Z,48.20
2023-02-11T06:28:33.591Z,45.25
2023-02-11T06:31:06.779Z,49.33
2023-02-11T06:33:35.238Z,52.15
2023-02-11T06:36:03.012Z,47.42
2023-02-11T06:38:30.175Z,43.97
2023-02-11T06:40:57.357Z,41.28
2023-02-11T06:43:24.495Z,47.50
2023-02-11T06:45:54.907Z,42.05
2023-02-11T06:48:23.093Z,41.88
2023-02-11T06:50:50.177Z,44.13
2023-02-11T06:53:17.275Z,47.25
2023-02-11T06:55:44.409Z,43.45
2023-02-11T06:58:11.551Z,46.80
2023-02-11T07:00:38.720Z,42.22
2023-02-11T07:03:05.985Z,44.17
2023-02-11T07:05:36.034Z,55.22
2023-02-11T07:08:03.247Z,60.30
2023-02-11T07:10:30.503Z,56.35
2023-02-11T07:12:58.838Z,58.90
2023-02-11T07:15:26.361Z,60.33
2023-02-11T07:17:53.479Z,75.35
2023-02-11T07:20:20.612Z,80.47
2023-02-11T07:22:47.738Z,77.20
2023-02-11T07:25:14.924Z,78.93
2023-02-11T07:27:42.084Z,78.35
2023-02-11T07:30:10.257Z,73.70
2023-02-11T07:32:37.409Z,75.32
2023-02-11T07:35:05.297Z,71.30
2023-02-11T07:37:35.003Z,72.03
2023-02-11T07:40:02.309Z,79.05
2023-02-11T07:42:29.490Z,66.93
2023-02-11T07:44:56.778Z,77.32
2023-02-11T07:47:23.917Z,66.38
2023-02-11T07:49:51.036Z,64.72
2023-02-11T07:52:18.245Z,56.33
2023-02-11T07:54:45.633Z,60.42
2023-02-11T07:57:12.831Z,61.40
2023-02-11T07:59:39.974Z,66.28
2023-02-11T08:02:08.539Z,72.60
2023-02-11T08:04:36.949Z,77.57
2023-02-11T08:07:36.814Z,103.30
2023-02-11T08:10:04.272Z,135.63
2023-02-11T08:12:31.411Z,93.20
2023-02-11T08:14:58.562Z,52.00
2023-02-11T08:17:25.724Z,63.53
2023-02-11T08:19:52.818Z,45.55
2023-02-11T08:22:20.005Z,49.75
2023-02-11T08:24:52.307Z,59.15
2023-02-11T08:27:19.699Z,68.38
2023-02-11T08:29:46.874Z,49.95
2023-02-11T08:32:14.121Z,75.53
2023-02-11T08:34:41.337Z,59.58
2023-02-11T08:37:09.039Z,47.80
2023-02-11T08:39:36.203Z,49.58
2023-02-11T08:42:06.521Z,73.55
2023-02-11T08:44:33.759Z,53.40
2023-02-11T08:47:00.907Z,65.07
2023-02-11T08:49:28.231Z,48.17
2023-02-11T08:52:02.259Z,52.97
2023-02-11T08:54:30.381Z,47.03
2023-02-11T08:57:09.975Z,48.05
2023-02-11T08:59:37.226Z,39.35
2023-02-11T09:02:04.397Z,39.03
2023-02-11T09:04:32.701Z,51.63
2023-02-11T09:07:00.988Z,48.00
2023-02-11T09:09:33.058Z,38.33
2023-02-11T09:12:05.710Z,44.45
2023-02-11T09:14:38.060Z,43.80
2023-02-11T09:17:05.302Z,42.92
2023-02-11T09:19:32.524Z,49.50
2023-02-11T09:21:59.777Z,54.10
2023-02-11T09:24:26.875Z,57.40
2023-02-11T09:26:54.108Z,49.85
2023-02-11T09:29:21.229Z,50.42
2023-02-11T09:31:48.564Z,52.40
2023-02-11T09:34:15.988Z,57.83
2023-02-11T09:36:43.184Z,42.15
2023-02-11T09:39:15.332Z,37.92
2023-02-11T09:42:10.596Z,47.53
2023-02-11T09:44:38.564Z,47.53
2023-02-11T09:47:35.126Z,38.30
2023-02-11T09:50:46.239Z,41.38
2023-02-11T09:53:22.283Z,50.03
2023-02-11T09:55:59.507Z,43.33
2023-02-11T09:58:35.718Z,80.30
2023-02-11T10:01:20.999Z,61.42
2023-02-11T10:04:27.878Z,35.50
2023-02-11T10:06:57.632Z,45.50
2023-02-11T10:09:50.053Z,42.95
2023-02-11T10:13:04.217Z,52.38
2023-02-11T10:16:13.538Z,35.97
2023-02-11T10:19:07.382Z,39.67
2023-02-11T10:22:03.484Z,40.40
2023-02-11T10:24:30.712Z,40.70
2023-02-11T10:26:57.830Z,40.90
2023-02-11T10:29:38.533Z,65.07
2023-02-11T10:32:38.451Z,85.55
2023-02-11T10:35:18.449Z,71.28
2023-02-11T10:37:45.813Z,50.35
2023-02-11T10:40:28.095Z,73.90
2023-02-11T10:42:59.293Z,147.75
2023-02-11T10:45:47.686Z,40.17
2023-02-11T10:48:40.705Z,70.47
2023-02-11T10:51:17.919Z,34.78
2023-02-11T10:53:46.674Z,54.10
2023-02-11T10:56:27.615Z,39.85
2023-02-11T10:59:34.361Z,42.80
2023-02-11T11:02:15.222Z,46.75
2023-02-11T11:04:45.573Z,62.47
2023-02-11T11:07:30.333Z,55.25
2023-02-11T11:10:08.795Z,42.60
2023-02-11T11:12:44.821Z,43.92
2023-02-11T11:15:26.018Z,43.80
2023-02-11T11:18:24.340Z,42.25
2023-02-11T11:21:03.227Z,54.70
2023-02-11T11:23:30.574Z,64.05
2023-02-11T11:26:13.139Z,37.55
2023-02-11T11:28:51.754Z,42.78
2023-02-11T11:31:30.063Z,41.75
2023-02-11T11:33:59.044Z,56.00
2023-02-11T11:36:38.094Z,43.00
2023-02-11T11:39:27.458Z,37.35
2023-02-11T11:41:57.589Z,48.22
2023-02-11T11:44:36.455Z,42.08
2023-02-11T11:47:12.470Z,36.00
2023-02-11T11:50:35.130Z,60.10
2023-02-11T11:53:18.794Z,44.25
2023-02-11T11:56:24.978Z,96.93
2023-02-11T11:58:53.105Z,48.63
2023-02-11T12:01:44.556Z,35.65
2023-02-11T12:04:30.194Z,33.95
2023-02-11T12:07:27.714Z,50.65
2023-02-11T12:10:48.153Z,52.58
2023-02-11T12:13:24.233Z,50.83
2023-02-11T12:16:10.290Z,38.92
2023-02-11T12:19:14.299Z,43.00
2023-02-11T12:22:02.960Z,37.95
2023-02-11T12:24:54.523Z,40.17
2023-02-11T12:27:36.724Z,41.45
2023-02-11T12:30:18.666Z,34.00
2023-02-11T12:33:31.650Z,49.92
2023-02-11T12:36:40.766Z,40.13
2023-02-11T12:39:50.355Z,45.55
2023-02-11T12:43:02.543Z,39.28
2023-02-11T12:45:49.734Z,54.92
2023-02-11T12:48:45.935Z,37.63
2023-02-11T12:52:03.784Z,39.90
2023-02-11T12:54:52.154Z,37.10
2023-02-11T12:57:26.251Z,41.20
2023-02-11T13:00:00.871Z,33.55
2023-02-11T13:03:24.401Z,38.00
2023-02-11T13:05:55.416Z,39.33
2023-02-11T13:08:41.259Z,42.08
2023-02-11T13:11:15.107Z,41.30
2023-02-11T13:13:47.051Z,37.67
2023-02-11T13:16:35.445Z,40.50
2023-02-11T13:19:18.897Z,40.22
2023-02-11T13:22:01.332Z,40.05
2023-02-11T13:24:44.384Z,44.25
2023-02-11T13:27:50.769Z,35.63
2023-02-11T13:30:34.369Z,42.75
2023-02-11T13:33:01.592Z,38.95
2023-02-11T13:35:39.009Z,36.65
2023-02-11T13:38:27.633Z,42.75
2023-02-11T13:41:19.247Z,39.13
2023-02-11T13:43:47.316Z,38.30
2023-02-11T13:46:14.963Z,39.08
2023-02-11T13:48:52.568Z,41.22
2023-02-11T13:51:37.977Z,38.78
2023-02-11T13:54:06.225Z,40.38
2023-02-11T13:56:40.536Z,41.75
2023-02-11T14:02:48.942Z,46.08
2023-02-11T14:05:38.864Z,42.90
2023-02-11T14:08:38.980Z,42.55
2023-02-11T14:11:25.295Z,41.70
2023-02-11T14:13:52.319Z,40.22
2023-02-11T14:16:36.923Z,42.45
2023-02-11T14:19:06.221Z,40.83
2023-02-11T14:21:36.652Z,40.83
2023-02-11T14:24:07.075Z,38.47
2023-02-11T14:26:49.556Z,38.17
2023-02-11T14:29:42.194Z,38.80
2023-02-11T14:32:59.024Z,49.08
2023-02-11T14:35:48.802Z,44.25
2023-02-11T14:38:47.627Z,40.20
2023-02-11T14:41:51.131Z,40.58
2023-02-11T14:44:23.621Z,46.97
2023-02-11T14:46:53.362Z,39.60
2023-02-11T14:49:43.667Z,42.22
2023-02-11T14:52:35.218Z,45.10
2023-02-11T14:55:38.754Z,37.72
2023-02-11T14:58:20.996Z,47.83
2023-02-11T15:01:09.354Z,44.17
2023-02-11T15:03:41.575Z,39.60
2023-02-11T15:06:29.044Z,41.28
2023-02-11T15:09:06.031Z,42.85
2023-02-11T15:11:39.697Z,39.70
2023-02-11T15:15:10.887Z,38.42
2023-02-11T15:17:38.075Z,36.08
2023-02-11T15:20:25.970Z,40.80
2023-02-11T15:23:03.398Z,44.95
2023-02-11T15:25:34.707Z,43.05
2023-02-11T15:28:01.954Z,41.45
2023-02-11T15:33:50.793Z,41.20
2023-02-11T15:36:23.671Z,40.22
2023-02-11T15:39:19.704Z,40.97
2023-02-11T15:41:49.474Z,39.20
2023-02-11T15:44:32.629Z,41.72
2023-02-11T15:47:02.690Z,39.88
2023-02-11T15:53:49.672Z,50.50
2023-02-11T15:56:49.133Z,42.97
2023-02-11T15:59:38.080Z,40.22
2023-02-11T16:02:42.611Z,39.38
2023-02-11T16:05:40.007Z,41.40
2023-02-11T16:08:28.236Z,45.50
2023-02-11T16:11:03.292Z,50.50
2023-02-11T16:13:34.183Z,44.95
2023-02-11T16:16:04.524Z,48.88
2023-02-11T16:18:40.198Z,53.05
2023-02-11T16:21:15.830Z,53.92
2023-02-11T16:23:43.200Z,48.78
2023-02-11T16:26:25.412Z,50.45
2023-02-11T16:28:52.612Z,51.47
2023-02-11T16:31:19.910Z,53.65
2023-02-11T16:33:47.153Z,52.33
2023-02-11T16:36:17.274Z,54.92
2023-02-11T16:38:44.491Z,48.13
2023-02-11T16:41:12.761Z,51.42
2023-02-11T16:43:40.439Z,50.63
2023-02-11T16:46:09.244Z,50.58
2023-02-11T16:48:36.455Z,56.47
2023-02-11T16:51:03.927Z,52.50
2023-02-11T16:53:31.512Z,51.67
2023-02-11T16:56:47.244Z,58.47
2023-02-11T16:59:17.117Z,53.35
2023-02-11T17:02:14.376Z,53.15
2023-02-11T17:08:57.643Z,49.83
2023-02-11T17:11:26.359Z,59.85
2023-02-11T17:14:08.914Z,58.63
2023-02-11T17:16:38.790Z,55.92
2023-02-11T17:19:05.978Z,55.15
2023-02-11T17:21:33.343Z,59.58
2023-02-11T17:24:00.537Z,55.65
2023-02-11T17:30:18.643Z,55.63
2023-02-11T17:32:57.621Z,59.67
2023-02-11T17:35:57.579Z,63.72
2023-02-11T17:38:28.320Z,65.70
2023-02-11T17:41:12.381Z,61.45
2023-02-11T17:43:50.502Z,70.93
2023-02-11T17:49:59.594Z,59.78
2023-02-11T17:52:36.927Z,58.08
2023-02-11T17:55:23.294Z,64.55
2023-02-11T17:58:05.002Z,59.13
2023-02-11T18:00:37.299Z,58.03
2023-02-11T18:03:08.806Z,58.45
2023-02-11T18:05:36.720Z,54.95
2023-02-11T18:08:15.569Z,56.60
2023-02-11T18:11:02.252Z,56.67
2023-02-11T18:13:51.693Z,61.95
2023-02-11T18:16:39.453Z,56.75
2023-02-11T18:19:57.405Z,55.65
2023-02-11T18:23:21.937Z,54.72
2023-02-11T18:30:02.314Z,59.38
2023-02-11T18:32:29.541Z,54.20
2023-02-11T18:36:10.464Z,58.80
2023-02-11T18:42:54.969Z,59.38
2023-02-11T18:47:01.087Z,57.38
2023-02-11T18:49:19.411Z,53.72
2023-02-11T18:51:48.417Z,57.33
2023-02-11T18:54:15.645Z,52.17
2023-02-11T18:56:42.809Z,53.95
2023-02-11T18:59:09.991Z,58.50
2023-02-11T19:01:39.939Z,56.92
2023-02-11T19:04:07.258Z,60.47
2023-02-11T19:06:36.904Z,56.78
2023-02-11T19:09:07.531Z,60.80
2023-02-11T19:11:47.020Z,60.58
2023-02-11T19:14:21.741Z,53.80
2023-02-11T19:16:50.643Z,59.47
2023-02-11T19:19:20.203Z,57.95
2023-02-11T19:21:47.648Z,57.25
2023-02-11T19:24:16.224Z,59.95
2023-02-11T19:26:43.409Z,60.70
2023-02-11T19:29:10.584Z,57.65
2023-02-11T19:31:37.937Z,61.47
2023-02-11T19:34:05.554Z,59.42
2023-02-11T19:36:37.228Z,57.72
2023-02-11T19:39:11.932Z,59.50
2023-02-11T19:41:39.192Z,54.47
2023-02-11T19:44:07.795Z,60.05
2023-02-11T19:46:37.370Z,60.40
2023-02-11T19:49:04.832Z,55.53
2023-02-11T19:51:33.542Z,55.25
2023-02-11T19:54:00.790Z,57.75
2023-02-11T19:56:30.939Z,57.20
2023-02-11T19:58:58.169Z,59.67
2023-02-11T20:01:25.582Z,59.78
2023-02-11T20:03:54.179Z,63.47
2023-02-11T20:06:31.457Z,60.13
2023-02-11T20:09:01.062Z,55.60
2023-02-11T20:11:29.865Z,60.63
2023-02-11T20:13:57.203Z,55.67
2023-02-11T20:16:44.574Z,49.88
2023-02-11T20:19:20.046Z,54.97
2023-02-11T20:21:48.545Z,51.42
2023-02-11T20:24:19.058Z,56.92
2023-02-11T20:26:50.581Z,56.13
2023-02-11T20:29:17.959Z,54.22
2023-02-11T20:31:45.411Z,53.90
2023-02-11T20:34:12.918Z,57.08
2023-02-11T20:36:40.699Z,52.53
2023-02-11T20:39:08.087Z,47.97
2023-02-11T20:41:36.738Z,51.20
2023-02-11T20:44:06.285Z,51.33
2023-02-11T20:46:34.292Z,51.88
2023-02-11T20:49:01.531Z,48.47
2023-02-11T20:51:53.750Z,53.95
2023-02-11T20:54:21.262Z,47.85
2023-02-11T20:56:49.961Z,46.67
2023-02-11T20:59:18.230Z,43.58
2023-02-11T21:01:50.798Z,43.03
2023-02-11T21:04:25.715Z,52.88
2023-02-11T21:06:55.844Z,43.65
2023-02-11T21:09:25.279Z,46.50
2023-02-11T21:11:55.086Z,44.30
2023-02-11T21:14:23.116Z,45.50
2023-02-11T21:16:50.386Z,43.95
2023-02-11T21:19:17.686Z,42.28
2023-02-11T21:21:45.048Z,45.00
2023-02-11T21:24:15.320Z,49.65
2023-02-11T21:26:42.553Z,46.05
2023-02-11T21:29:09.947Z,58.72
2023-02-11T21:31:37.365Z,52.90
2023-02-11T21:34:05.437Z,51.75
2023-02-11T21:36:32.645Z,49.00
2023-02-11T21:39:01.711Z,47.67
2023-02-11T21:41:29.104Z,49.92
2023-02-11T21:43:56.870Z,50.75
2023-02-11T21:46:24.235Z,42.88
2023-02-11T21:48:51.505Z,48.17
2023-02-11T21:51:21.225Z,48.22
2023-02-11T21:53:48.594Z,53.63
2023-02-11T21:56:17.999Z,47.78
2023-02-11T21:58:45.584Z,50.83
2023-02-11T22:01:22.073Z,43.30
2023-02-11T22:03:49.445Z,45.15
2023-02-11T22:06:26.133Z,45.33
2023-02-11T22:08:57.257Z,44.78
2023-02-11T22:11:27.441Z,41.80
2023-02-11T22:14:05.384Z,44.78
2023-02-11T22:16:35.952Z,39.13
2023-02-11T22:19:10.892Z,37.45
2023-02-11T22:22:14.666Z,43.55
2023-02-11T22:24:48.238Z,44.92
2023-02-11T22:27:20.250Z,44.80
2023-02-11T22:29:49.300Z,36.15
2023-02-11T22:32:17.779Z,32.22
2023-02-11T22:34:46.050Z,38.00
2023-02-11T22:37:24.150Z,40.47
2023-02-11T22:39:51.300Z,36.20
2023-02-11T22:42:18.424Z,38.85
2023-02-11T22:44:45.740Z,40.25
2023-02-11T22:47:12.895Z,36.70
2023-02-11T22:49:41.381Z,34.75
2023-02-11T22:52:09.720Z,40.65
2023-02-11T22:54:36.836Z,35.80
2023-02-11T22:57:06.949Z,38.92
2023-02-11T22:59:37.153Z,39.35
2023-02-11T23:02:04.454Z,39.58
2023-02-11T23:04:31.608Z,42.63
2023-02-11T23:06:58.722Z,37.30
2023-02-11T23:09:25.844Z,37.85
2023-02-11T23:11:54.407Z,39.33
2023-02-11T23:14:21.622Z,33.13
2023-02-11T23:16:49.892Z,35.50
2023-02-11T23:19:17.178Z,32.55
2023-02-11T23:21:44.296Z,34.38
2023-02-11T23:24:13.488Z,37.22
2023-02-11T23:26:41.574Z,41.53
2023-02-11T23:29:09.418Z,36.95
2023-02-11T23:31:39.896Z,35.20
2023-02-11T23:34:07.843Z,38.75
2023-02-11T23:36:35.068Z,36.33
2023-02-11T23:39:02.281Z,33.78
2023-02-11T23:41:29.473Z,40.22
2023-02-11T23:43:57.569Z,36.60
2023-02-11T23:46:25.634Z,34.55
2023-02-11T23:48:53.107Z,31.58
2023-02-11T23:51:20.273Z,39.30
2023-02-11T23:53:49.233Z,37.53
2023-02-11T23:56:19.863Z,37.58
2023-02-11T23:58:51.479Z,34.92
